Terminal Aerodrome Forecast
Issued by NWS

Home | Current Version | Previous Version | Graphics & Text | Print | Product List | Glossary On
Versions: 1 2 3 4 5 6 7 8 9 10 11 12 13 14 15 16 17 18 19 20 21 22
703
FTUS43 KBIS 152346
TAFJMS
TAF
KJMS 152346Z 1600/1624 36010KT P6SM OVC015
     FM160300 03006KT P6SM OVC015
     FM160500 08005KT P6SM OVC015
     FM160800 12009KT P6SM OVC011
     FM161500 14017G25KT P6SM SCT010 SCT140
     FM161700 14019G28KT P6SM BKN120 BKN200=

USA.gov is the U.S. government's official web portal to all federal, state and local government web resources and services.